Disclaimer

Please do not use the information listed here in-flight or in-navigation, as they are not provided to us by the airports but are provided by volunteers, so they might be outdated.

Search


Regions


Airport information page

Radio informations:
Tower (TWR) - 118.4 MHz
Automatic Terminal Information Service (ATIS) - 121.75 MHz
Approach (APP) - 119.95 MHz

Airport informations:
Latitude: 53° 46' 18.00" N
Longitude: 003° 01' 43.00" W
Elevation: 34 feet - 10 meters
Operating hours: N/A
Operating agency: Civil government, landing fees and diplomatic clearance may be required
Timezone: UTC 0(+1DT) - Last Sunday in March to last Sunday in October
Fuel: Jet A1, without icing nhibitor.

100/130 MIL Spec, low lead, aviation gasoline (BLUE)

Runway information:
07/25 - 2621 x 98 feet< - >799 x 30 meters
10/28 - 6132 x 151 feet< - >1869 x 46 meters
13/31 - 3533 x 75 feet< - >1077 x 23 meters

Recent METARs:
EGNH 170920Z 33015KT 9999 FEW025 03/M03 Q1012
EGNH 170950Z 33017G27KT 9999 FEW024 03/M03 Q1013
EGNH 171020Z 34016KT 9999 FEW025 04/M03 Q1013

Airport on the map: